sensor_id;sensor_type;location;lat;lon;timestamp;P1;durP1;ratioP1;P2;durP2;ratioP2
72924;SDS011;61070;50.794;7.054;2023-05-07T00:00:53;7.40;;;4.10;;
72924;SDS011;61070;50.794;7.054;2023-05-07T00:03:20;12.02;;;4.80;;
72924;SDS011;61070;50.794;7.054;2023-05-07T00:05:46;7.63;;;4.28;;
72924;SDS011;61070;50.794;7.054;2023-05-07T00:08:11;10.13;;;4.22;;
72924;SDS011;61070;50.794;7.054;2023-05-07T00:10:36;6.00;;;4.25;;
72924;SDS011;61070;50.794;7.054;2023-05-07T00:13:02;6.55;;;4.13;;
72924;SDS011;61070;50.794;7.054;2023-05-07T00:15:27;5.53;;;4.03;;
72924;SDS011;61070;50.794;7.054;2023-05-07T00:17:53;6.72;;;4.20;;
72924;SDS011;61070;50.794;7.054;2023-05-07T00:20:18;6.63;;;4.18;;
72924;SDS011;61070;50.794;7.054;2023-05-07T00:22:43;7.25;;;4.72;;
72924;SDS011;61070;50.794;7.054;2023-05-07T00:25:09;6.13;;;4.32;;
72924;SDS011;61070;50.794;7.054;2023-05-07T00:27:35;19.10;;;5.13;;
72924;SDS011;61070;50.794;7.054;2023-05-07T00:30:00;8.05;;;4.68;;
72924;SDS011;61070;50.794;7.054;2023-05-07T00:32:25;7.28;;;4.53;;
72924;SDS011;61070;50.794;7.054;2023-05-07T00:34:51;7.65;;;4.60;;
72924;SDS011;61070;50.794;7.054;2023-05-07T00:37:16;6.80;;;4.72;;
72924;SDS011;61070;50.794;7.054;2023-05-07T00:39:41;7.28;;;4.78;;
72924;SDS011;61070;50.794;7.054;2023-05-07T00:42:06;7.50;;;4.70;;
72924;SDS011;61070;50.794;7.054;2023-05-07T00:44:33;7.05;;;4.03;;
72924;SDS011;61070;50.794;7.054;2023-05-07T00:46:58;5.93;;;4.53;;
72924;SDS011;61070;50.794;7.054;2023-05-07T00:49:33;6.88;;;5.10;;
72924;SDS011;61070;50.794;7.054;2023-05-07T00:52:03;11.35;;;4.55;;
72924;SDS011;61070;50.794;7.054;2023-05-07T00:54:30;8.07;;;4.85;;
72924;SDS011;61070;50.794;7.054;2023-05-07T00:56:56;9.05;;;4.72;;
72924;SDS011;61070;50.794;7.054;2023-05-07T00:59:21;13.43;;;4.88;;
72924;SDS011;61070;50.794;7.054;2023-05-07T01:01:46;5.70;;;4.05;;
72924;SDS011;61070;50.794;7.054;2023-05-07T01:04:11;6.85;;;4.30;;
72924;SDS011;61070;50.794;7.054;2023-05-07T01:06:37;6.03;;;3.70;;
72924;SDS011;61070;50.794;7.054;2023-05-07T01:09:03;11.52;;;4.85;;
72924;SDS011;61070;50.794;7.054;2023-05-07T01:11:29;6.30;;;4.45;;
72924;SDS011;61070;50.794;7.054;2023-05-07T01:13:55;6.53;;;3.95;;
72924;SDS011;61070;50.794;7.054;2023-05-07T01:16:21;10.38;;;4.18;;
72924;SDS011;61070;50.794;7.054;2023-05-07T01:18:47;8.45;;;4.10;;
72924;SDS011;61070;50.794;7.054;2023-05-07T01:21:13;7.75;;;4.18;;
72924;SDS011;61070;50.794;7.054;2023-05-07T01:23:41;7.35;;;4.75;;
72924;SDS011;61070;50.794;7.054;2023-05-07T01:26:07;8.18;;;4.07;;
72924;SDS011;61070;50.794;7.054;2023-05-07T01:28:32;5.47;;;4.10;;
72924;SDS011;61070;50.794;7.054;2023-05-07T01:31:00;6.13;;;3.45;;
72924;SDS011;61070;50.794;7.054;2023-05-07T01:33:27;5.78;;;4.03;;
72924;SDS011;61070;50.794;7.054;2023-05-07T01:35:56;7.72;;;3.95;;
72924;SDS011;61070;50.794;7.054;2023-05-07T01:38:25;9.65;;;4.57;;
72924;SDS011;61070;50.794;7.054;2023-05-07T01:40:52;7.03;;;3.97;;
72924;SDS011;61070;50.794;7.054;2023-05-07T01:43:18;10.52;;;4.20;;
72924;SDS011;61070;50.794;7.054;2023-05-07T01:45:44;6.82;;;4.18;;
72924;SDS011;61070;50.794;7.054;2023-05-07T01:48:10;17.77;;;5.05;;
72924;SDS011;61070;50.794;7.054;2023-05-07T01:50:37;8.68;;;5.63;;
72924;SDS011;61070;50.794;7.054;2023-05-07T01:53:03;7.43;;;5.15;;
72924;SDS011;61070;50.794;7.054;2023-05-07T01:55:29;6.50;;;4.68;;
72924;SDS011;61070;50.794;7.054;2023-05-07T01:57:54;7.68;;;5.65;;
72924;SDS011;61070;50.794;7.054;2023-05-07T02:00:19;9.98;;;5.95;;
72924;SDS011;61070;50.794;7.054;2023-05-07T02:02:45;12.05;;;6.00;;
72924;SDS011;61070;50.794;7.054;2023-05-07T02:05:10;10.65;;;5.95;;
72924;SDS011;61070;50.794;7.054;2023-05-07T02:07:36;8.10;;;5.60;;
72924;SDS011;61070;50.794;7.054;2023-05-07T02:10:01;6.90;;;5.65;;
72924;SDS011;61070;50.794;7.054;2023-05-07T02:12:27;11.95;;;5.72;;
72924;SDS011;61070;50.794;7.054;2023-05-07T02:14:53;10.05;;;5.55;;
72924;SDS011;61070;50.794;7.054;2023-05-07T02:17:18;6.97;;;5.03;;
72924;SDS011;61070;50.794;7.054;2023-05-07T02:19:44;10.45;;;5.43;;
72924;SDS011;61070;50.794;7.054;2023-05-07T02:22:09;7.60;;;5.72;;
72924;SDS011;61070;50.794;7.054;2023-05-07T02:24:35;8.30;;;4.75;;
72924;SDS011;61070;50.794;7.054;2023-05-07T02:27:00;7.70;;;5.13;;
72924;SDS011;61070;50.794;7.054;2023-05-07T02:29:26;9.30;;;5.68;;
72924;SDS011;61070;50.794;7.054;2023-05-07T02:31:51;9.20;;;5.28;;
72924;SDS011;61070;50.794;7.054;2023-05-07T02:34:18;9.93;;;5.13;;
72924;SDS011;61070;50.794;7.054;2023-05-07T02:36:44;8.75;;;4.85;;
72924;SDS011;61070;50.794;7.054;2023-05-07T02:39:10;8.95;;;3.95;;
72924;SDS011;61070;50.794;7.054;2023-05-07T02:41:35;8.93;;;4.97;;
72924;SDS011;61070;50.794;7.054;2023-05-07T02:44:01;10.43;;;4.60;;
72924;SDS011;61070;50.794;7.054;2023-05-07T02:46:26;6.82;;;4.18;;
72924;SDS011;61070;50.794;7.054;2023-05-07T02:48:51;7.03;;;4.32;;
72924;SDS011;61070;50.794;7.054;2023-05-07T02:51:20;7.68;;;4.20;;
72924;SDS011;61070;50.794;7.054;2023-05-07T02:53:46;5.20;;;4.32;;
72924;SDS011;61070;50.794;7.054;2023-05-07T02:56:12;7.47;;;4.43;;
72924;SDS011;61070;50.794;7.054;2023-05-07T02:58:37;5.15;;;4.25;;
72924;SDS011;61070;50.794;7.054;2023-05-07T03:01:07;4.60;;;3.75;;
72924;SDS011;61070;50.794;7.054;2023-05-07T03:03:32;6.50;;;4.22;;
72924;SDS011;61070;50.794;7.054;2023-05-07T03:05:58;6.45;;;4.55;;
72924;SDS011;61070;50.794;7.054;2023-05-07T03:08:23;6.50;;;3.80;;
72924;SDS011;61070;50.794;7.054;2023-05-07T03:10:49;7.85;;;4.22;;
72924;SDS011;61070;50.794;7.054;2023-05-07T03:13:14;5.35;;;4.05;;
72924;SDS011;61070;50.794;7.054;2023-05-07T03:15:39;6.63;;;4.18;;
72924;SDS011;61070;50.794;7.054;2023-05-07T03:18:05;5.35;;;3.40;;
72924;SDS011;61070;50.794;7.054;2023-05-07T03:20:30;6.53;;;4.30;;
72924;SDS011;61070;50.794;7.054;2023-05-07T03:22:55;7.65;;;4.10;;
72924;SDS011;61070;50.794;7.054;2023-05-07T03:25:21;6.15;;;4.57;;
72924;SDS011;61070;50.794;7.054;2023-05-07T03:27:46;4.55;;;3.72;;
72924;SDS011;61070;50.794;7.054;2023-05-07T03:30:11;7.63;;;4.10;;
72924;SDS011;61070;50.794;7.054;2023-05-07T03:32:37;4.30;;;3.47;;
72924;SDS011;61070;50.794;7.054;2023-05-07T03:35:03;7.18;;;3.45;;
72924;SDS011;61070;50.794;7.054;2023-05-07T03:37:28;4.90;;;3.95;;
72924;SDS011;61070;50.794;7.054;2023-05-07T03:39:53;11.82;;;4.38;;
72924;SDS011;61070;50.794;7.054;2023-05-07T03:42:19;6.32;;;4.43;;
72924;SDS011;61070;50.794;7.054;2023-05-07T03:44:44;9.43;;;3.72;;
72924;SDS011;61070;50.794;7.054;2023-05-07T03:47:09;6.30;;;3.83;;
72924;SDS011;61070;50.794;7.054;2023-05-07T03:49:35;11.00;;;4.57;;
72924;SDS011;61070;50.794;7.054;2023-05-07T03:52:00;5.85;;;4.18;;
72924;SDS011;61070;50.794;7.054;2023-05-07T03:54:26;7.03;;;3.92;;
72924;SDS011;61070;50.794;7.054;2023-05-07T03:56:51;4.38;;;3.58;;
72924;SDS011;61070;50.794;7.054;2023-05-07T03:59:16;6.43;;;4.03;;
72924;SDS011;61070;50.794;7.054;2023-05-07T04:01:41;7.13;;;4.35;;
72924;SDS011;61070;50.794;7.054;2023-05-07T04:04:07;5.40;;;3.78;;
72924;SDS011;61070;50.794;7.054;2023-05-07T04:06:32;6.57;;;4.28;;
72924;SDS011;61070;50.794;7.054;2023-05-07T04:08:57;11.57;;;4.10;;
72924;SDS011;61070;50.794;7.054;2023-05-07T04:11:23;7.85;;;4.43;;
72924;SDS011;61070;50.794;7.054;2023-05-07T04:13:48;10.43;;;4.82;;
72924;SDS011;61070;50.794;7.054;2023-05-07T04:16:14;8.02;;;4.72;;
72924;SDS011;61070;50.794;7.054;2023-05-07T04:18:39;9.02;;;4.22;;
72924;SDS011;61070;50.794;7.054;2023-05-07T04:21:04;5.05;;;3.75;;
72924;SDS011;61070;50.794;7.054;2023-05-07T04:23:30;8.57;;;4.00;;
72924;SDS011;61070;50.794;7.054;2023-05-07T04:25:55;13.85;;;4.38;;
72924;SDS011;61070;50.794;7.054;2023-05-07T04:28:21;6.93;;;4.07;;
72924;SDS011;61070;50.794;7.054;2023-05-07T04:30:46;11.95;;;4.28;;
72924;SDS011;61070;50.794;7.054;2023-05-07T04:33:11;5.38;;;3.83;;
72924;SDS011;61070;50.794;7.054;2023-05-07T04:35:38;6.90;;;3.83;;
72924;SDS011;61070;50.794;7.054;2023-05-07T04:38:03;9.90;;;3.78;;
72924;SDS011;61070;50.794;7.054;2023-05-07T04:40:29;7.28;;;3.63;;
72924;SDS011;61070;50.794;7.054;2023-05-07T04:42:55;7.05;;;3.83;;
72924;SDS011;61070;50.794;7.054;2023-05-07T04:45:20;5.45;;;3.60;;
72924;SDS011;61070;50.794;7.054;2023-05-07T04:47:45;5.10;;;3.72;;
72924;SDS011;61070;50.794;7.054;2023-05-07T04:50:11;7.93;;;4.43;;
72924;SDS011;61070;50.794;7.054;2023-05-07T04:52:36;6.68;;;4.03;;
72924;SDS011;61070;50.794;7.054;2023-05-07T04:55:02;9.05;;;3.72;;
72924;SDS011;61070;50.794;7.054;2023-05-07T04:57:27;5.03;;;3.75;;
72924;SDS011;61070;50.794;7.054;2023-05-07T04:59:53;4.90;;;3.40;;
72924;SDS011;61070;50.794;7.054;2023-05-07T05:02:19;6.65;;;3.78;;
72924;SDS011;61070;50.794;7.054;2023-05-07T05:04:44;6.75;;;3.42;;
72924;SDS011;61070;50.794;7.054;2023-05-07T05:07:09;8.48;;;3.47;;
72924;SDS011;61070;50.794;7.054;2023-05-07T05:09:35;6.15;;;3.60;;
72924;SDS011;61070;50.794;7.054;2023-05-07T05:12:00;9.75;;;3.65;;
72924;SDS011;61070;50.794;7.054;2023-05-07T05:14:25;7.05;;;3.88;;
72924;SDS011;61070;50.794;7.054;2023-05-07T05:16:51;9.57;;;3.90;;
72924;SDS011;61070;50.794;7.054;2023-05-07T05:19:16;7.03;;;3.35;;
72924;SDS011;61070;50.794;7.054;2023-05-07T05:21:41;5.78;;;3.28;;
72924;SDS011;61070;50.794;7.054;2023-05-07T05:24:07;7.05;;;3.47;;
72924;SDS011;61070;50.794;7.054;2023-05-07T05:26:32;5.95;;;3.40;;
72924;SDS011;61070;50.794;7.054;2023-05-07T05:28:57;6.82;;;3.42;;
72924;SDS011;61070;50.794;7.054;2023-05-07T05:31:23;5.65;;;3.33;;
72924;SDS011;61070;50.794;7.054;2023-05-07T05:33:48;6.32;;;3.60;;
72924;SDS011;61070;50.794;7.054;2023-05-07T05:36:13;7.80;;;3.58;;
72924;SDS011;61070;50.794;7.054;2023-05-07T05:38:39;4.00;;;3.10;;
72924;SDS011;61070;50.794;7.054;2023-05-07T05:41:05;7.20;;;3.63;;
72924;SDS011;61070;50.794;7.054;2023-05-07T05:43:30;4.97;;;3.35;;
72924;SDS011;61070;50.794;7.054;2023-05-07T05:45:56;6.53;;;2.95;;
72924;SDS011;61070;50.794;7.054;2023-05-07T05:48:22;8.00;;;2.92;;
72924;SDS011;61070;50.794;7.054;2023-05-07T05:50:48;7.38;;;2.95;;
72924;SDS011;61070;50.794;7.054;2023-05-07T05:53:13;3.38;;;2.70;;
72924;SDS011;61070;50.794;7.054;2023-05-07T05:55:38;4.50;;;3.00;;
72924;SDS011;61070;50.794;7.054;2023-05-07T05:58:04;6.63;;;3.28;;
72924;SDS011;61070;50.794;7.054;2023-05-07T06:00:29;7.65;;;3.40;;
72924;SDS011;61070;50.794;7.054;2023-05-07T06:02:55;7.80;;;2.75;;
72924;SDS011;61070;50.794;7.054;2023-05-07T06:05:21;6.90;;;2.60;;
72924;SDS011;61070;50.794;7.054;2023-05-07T06:07:46;7.93;;;3.53;;
72924;SDS011;61070;50.794;7.054;2023-05-07T06:10:12;3.58;;;3.08;;
72924;SDS011;61070;50.794;7.054;2023-05-07T06:12:37;8.75;;;3.53;;
72924;SDS011;61070;50.794;7.054;2023-05-07T06:15:02;5.65;;;2.97;;
72924;SDS011;61070;50.794;7.054;2023-05-07T06:17:28;4.80;;;3.17;;
72924;SDS011;61070;50.794;7.054;2023-05-07T06:19:53;3.60;;;2.78;;
72924;SDS011;61070;50.794;7.054;2023-05-07T06:22:19;5.32;;;2.60;;
72924;SDS011;61070;50.794;7.054;2023-05-07T06:24:44;6.43;;;2.92;;
72924;SDS011;61070;50.794;7.054;2023-05-07T06:27:09;3.50;;;2.65;;
72924;SDS011;61070;50.794;7.054;2023-05-07T06:29:35;3.92;;;2.65;;
72924;SDS011;61070;50.794;7.054;2023-05-07T06:32:10;5.45;;;2.38;;
72924;SDS011;61070;50.794;7.054;2023-05-07T06:34:37;5.78;;;2.67;;
72924;SDS011;61070;50.794;7.054;2023-05-07T06:37:02;6.35;;;3.05;;
72924;SDS011;61070;50.794;7.054;2023-05-07T06:39:28;7.68;;;3.03;;
72924;SDS011;61070;50.794;7.054;2023-05-07T06:41:53;5.03;;;2.60;;
72924;SDS011;61070;50.794;7.054;2023-05-07T06:44:18;4.60;;;2.60;;
72924;SDS011;61070;50.794;7.054;2023-05-07T06:46:44;2.97;;;2.50;;
72924;SDS011;61070;50.794;7.054;2023-05-07T06:49:10;5.07;;;2.70;;
72924;SDS011;61070;50.794;7.054;2023-05-07T06:51:35;9.00;;;3.50;;
72924;SDS011;61070;50.794;7.054;2023-05-07T06:54:00;7.10;;;2.45;;
72924;SDS011;61070;50.794;7.054;2023-05-07T06:56:26;4.68;;;2.53;;
72924;SDS011;61070;50.794;7.054;2023-05-07T06:58:51;4.18;;;2.70;;
72924;SDS011;61070;50.794;7.054;2023-05-07T07:01:17;4.25;;;2.65;;
72924;SDS011;61070;50.794;7.054;2023-05-07T07:03:42;5.68;;;2.60;;
72924;SDS011;61070;50.794;7.054;2023-05-07T07:06:07;5.95;;;2.58;;
72924;SDS011;61070;50.794;7.054;2023-05-07T07:08:32;6.07;;;2.20;;
72924;SDS011;61070;50.794;7.054;2023-05-07T07:10:58;4.40;;;2.25;;
72924;SDS011;61070;50.794;7.054;2023-05-07T07:13:23;5.30;;;2.22;;
72924;SDS011;61070;50.794;7.054;2023-05-07T07:15:48;4.03;;;2.40;;
72924;SDS011;61070;50.794;7.054;2023-05-07T07:18:14;3.30;;;2.30;;
72924;SDS011;61070;50.794;7.054;2023-05-07T07:20:40;3.78;;;2.65;;
72924;SDS011;61070;50.794;7.054;2023-05-07T07:23:05;4.55;;;2.60;;
72924;SDS011;61070;50.794;7.054;2023-05-07T07:25:30;3.10;;;2.45;;
72924;SDS011;61070;50.794;7.054;2023-05-07T07:27:56;3.40;;;2.13;;
72924;SDS011;61070;50.794;7.054;2023-05-07T07:30:21;3.83;;;2.50;;
72924;SDS011;61070;50.794;7.054;2023-05-07T07:32:46;4.50;;;2.30;;
72924;SDS011;61070;50.794;7.054;2023-05-07T07:35:12;3.03;;;2.28;;
72924;SDS011;61070;50.794;7.054;2023-05-07T07:37:37;5.15;;;2.60;;
72924;SDS011;61070;50.794;7.054;2023-05-07T07:40:02;2.97;;;1.85;;
72924;SDS011;61070;50.794;7.054;2023-05-07T07:42:28;3.20;;;2.10;;
72924;SDS011;61070;50.794;7.054;2023-05-07T07:44:54;6.38;;;2.45;;
72924;SDS011;61070;50.794;7.054;2023-05-07T07:47:19;5.78;;;2.20;;
72924;SDS011;61070;50.794;7.054;2023-05-07T07:49:45;5.93;;;2.10;;
72924;SDS011;61070;50.794;7.054;2023-05-07T07:52:10;5.38;;;2.42;;
72924;SDS011;61070;50.794;7.054;2023-05-07T07:54:35;4.85;;;1.98;;
72924;SDS011;61070;50.794;7.054;2023-05-07T07:57:00;2.92;;;2.15;;
72924;SDS011;61070;50.794;7.054;2023-05-07T07:59:26;4.70;;;2.00;;
72924;SDS011;61070;50.794;7.054;2023-05-07T08:01:51;3.45;;;2.28;;
72924;SDS011;61070;50.794;7.054;2023-05-07T08:04:20;4.18;;;2.25;;
72924;SDS011;61070;50.794;7.054;2023-05-07T08:06:45;3.33;;;2.03;;
72924;SDS011;61070;50.794;7.054;2023-05-07T08:09:11;4.55;;;2.67;;
72924;SDS011;61070;50.794;7.054;2023-05-07T08:11:36;6.30;;;2.35;;
72924;SDS011;61070;50.794;7.054;2023-05-07T08:14:01;3.28;;;2.17;;
72924;SDS011;61070;50.794;7.054;2023-05-07T08:16:27;3.22;;;2.10;;
72924;SDS011;61070;50.794;7.054;2023-05-07T08:18:53;4.57;;;2.30;;
72924;SDS011;61070;50.794;7.054;2023-05-07T08:21:18;2.90;;;2.45;;
72924;SDS011;61070;50.794;7.054;2023-05-07T08:23:43;6.75;;;2.40;;
72924;SDS011;61070;50.794;7.054;2023-05-07T08:26:09;5.45;;;2.38;;
72924;SDS011;61070;50.794;7.054;2023-05-07T08:28:34;6.28;;;3.00;;
72924;SDS011;61070;50.794;7.054;2023-05-07T08:31:00;7.95;;;2.33;;
72924;SDS011;61070;50.794;7.054;2023-05-07T08:33:25;5.00;;;2.08;;
72924;SDS011;61070;50.794;7.054;2023-05-07T08:35:51;2.63;;;1.80;;
72924;SDS011;61070;50.794;7.054;2023-05-07T08:38:16;3.20;;;2.10;;
72924;SDS011;61070;50.794;7.054;2023-05-07T08:40:42;7.63;;;2.28;;
72924;SDS011;61070;50.794;7.054;2023-05-07T08:43:07;6.68;;;2.50;;
72924;SDS011;61070;50.794;7.054;2023-05-07T08:45:33;3.72;;;1.95;;
72924;SDS011;61070;50.794;7.054;2023-05-07T08:48:00;5.38;;;2.33;;
72924;SDS011;61070;50.794;7.054;2023-05-07T08:50:28;2.95;;;2.03;;
72924;SDS011;61070;50.794;7.054;2023-05-07T08:52:53;3.63;;;1.92;;
72924;SDS011;61070;50.794;7.054;2023-05-07T08:55:20;4.57;;;2.13;;
72924;SDS011;61070;50.794;7.054;2023-05-07T08:57:45;4.60;;;1.67;;
72924;SDS011;61070;50.794;7.054;2023-05-07T09:00:12;5.28;;;2.20;;
72924;SDS011;61070;50.794;7.054;2023-05-07T09:02:37;3.03;;;2.05;;
72924;SDS011;61070;50.794;7.054;2023-05-07T09:05:03;3.53;;;2.03;;
72924;SDS011;61070;50.794;7.054;2023-05-07T09:07:28;3.50;;;1.95;;
72924;SDS011;61070;50.794;7.054;2023-05-07T09:09:55;7.32;;;2.03;;
72924;SDS011;61070;50.794;7.054;2023-05-07T09:12:22;3.90;;;2.20;;
72924;SDS011;61070;50.794;7.054;2023-05-07T09:14:47;2.33;;;1.80;;
72924;SDS011;61070;50.794;7.054;2023-05-07T09:17:13;4.32;;;2.35;;
72924;SDS011;61070;50.794;7.054;2023-05-07T09:19:40;3.50;;;2.13;;
72924;SDS011;61070;50.794;7.054;2023-05-07T09:22:05;7.82;;;2.10;;
72924;SDS011;61070;50.794;7.054;2023-05-07T09:24:33;8.93;;;2.50;;
72924;SDS011;61070;50.794;7.054;2023-05-07T09:27:03;3.47;;;2.15;;
72924;SDS011;61070;50.794;7.054;2023-05-07T09:29:33;3.13;;;1.95;;
72924;SDS011;61070;50.794;7.054;2023-05-07T09:32:06;3.53;;;2.17;;
72924;SDS011;61070;50.794;7.054;2023-05-07T09:34:32;3.90;;;1.92;;
72924;SDS011;61070;50.794;7.054;2023-05-07T09:36:59;3.33;;;1.85;;
72924;SDS011;61070;50.794;7.054;2023-05-07T09:39:25;6.38;;;2.63;;
72924;SDS011;61070;50.794;7.054;2023-05-07T09:41:51;6.22;;;2.05;;
72924;SDS011;61070;50.794;7.054;2023-05-07T09:44:19;3.83;;;1.70;;
72924;SDS011;61070;50.794;7.054;2023-05-07T09:46:45;4.80;;;2.50;;
72924;SDS011;61070;50.794;7.054;2023-05-07T09:49:14;3.85;;;1.95;;
72924;SDS011;61070;50.794;7.054;2023-05-07T09:51:49;8.57;;;1.85;;
72924;SDS011;61070;50.794;7.054;2023-05-07T09:54:15;5.05;;;1.98;;
72924;SDS011;61070;50.794;7.054;2023-05-07T09:56:45;2.88;;;2.20;;
72924;SDS011;61070;50.794;7.054;2023-05-07T09:59:14;2.33;;;1.90;;
72924;SDS011;61070;50.794;7.054;2023-05-07T10:01:41;5.75;;;2.13;;
72924;SDS011;61070;50.794;7.054;2023-05-07T10:04:07;5.60;;;2.00;;
72924;SDS011;61070;50.794;7.054;2023-05-07T10:06:34;3.00;;;1.65;;
72924;SDS011;61070;50.794;7.054;2023-05-07T10:09:00;3.45;;;2.00;;
72924;SDS011;61070;50.794;7.054;2023-05-07T10:11:26;5.03;;;2.05;;
72924;SDS011;61070;50.794;7.054;2023-05-07T10:13:53;2.92;;;2.13;;
72924;SDS011;61070;50.794;7.054;2023-05-07T10:16:18;2.70;;;1.92;;
72924;SDS011;61070;50.794;7.054;2023-05-07T10:18:44;4.68;;;1.83;;
72924;SDS011;61070;50.794;7.054;2023-05-07T10:21:11;6.97;;;2.05;;
72924;SDS011;61070;50.794;7.054;2023-05-07T10:23:42;7.68;;;2.13;;
72924;SDS011;61070;50.794;7.054;2023-05-07T10:26:10;4.18;;;2.03;;
72924;SDS011;61070;50.794;7.054;2023-05-07T10:28:38;5.65;;;1.95;;
72924;SDS011;61070;50.794;7.054;2023-05-07T10:31:14;2.83;;;1.70;;
72924;SDS011;61070;50.794;7.054;2023-05-07T10:34:00;5.70;;;2.00;;
72924;SDS011;61070;50.794;7.054;2023-05-07T10:36:32;4.93;;;2.20;;
72924;SDS011;61070;50.794;7.054;2023-05-07T10:38:59;10.82;;;2.58;;
72924;SDS011;61070;50.794;7.054;2023-05-07T10:41:24;3.38;;;1.80;;
72924;SDS011;61070;50.794;7.054;2023-05-07T10:43:50;4.68;;;1.90;;
72924;SDS011;61070;50.794;7.054;2023-05-07T10:46:16;3.75;;;2.40;;
72924;SDS011;61070;50.794;7.054;2023-05-07T10:49:06;3.53;;;1.75;;
72924;SDS011;61070;50.794;7.054;2023-05-07T10:51:31;2.72;;;1.83;;
72924;SDS011;61070;50.794;7.054;2023-05-07T10:56:35;2.33;;;1.63;;
72924;SDS011;61070;50.794;7.054;2023-05-07T11:02:06;4.07;;;1.85;;
72924;SDS011;61070;50.794;7.054;2023-05-07T11:04:34;2.28;;;1.60;;
72924;SDS011;61070;50.794;7.054;2023-05-07T11:15:11;4.18;;;1.77;;
72924;SDS011;61070;50.794;7.054;2023-05-07T11:17:53;2.92;;;1.83;;
72924;SDS011;61070;50.794;7.054;2023-05-07T11:20:20;1.98;;;1.40;;
72924;SDS011;61070;50.794;7.054;2023-05-07T11:28:42;2.33;;;1.73;;
72924;SDS011;61070;50.794;7.054;2023-05-07T11:31:08;2.42;;;1.40;;
72924;SDS011;61070;50.794;7.054;2023-05-07T11:33:34;3.50;;;1.58;;
72924;SDS011;61070;50.794;7.054;2023-05-07T11:36:02;3.20;;;1.67;;
72924;SDS011;61070;50.794;7.054;2023-05-07T11:38:28;3.13;;;1.60;;
72924;SDS011;61070;50.794;7.054;2023-05-07T11:40:55;2.17;;;1.42;;
72924;SDS011;61070;50.794;7.054;2023-05-07T11:43:21;2.53;;;1.52;;
72924;SDS011;61070;50.794;7.054;2023-05-07T11:45:47;2.38;;;1.15;;
72924;SDS011;61070;50.794;7.054;2023-05-07T11:48:13;4.43;;;1.52;;
72924;SDS011;61070;50.794;7.054;2023-05-07T11:50:52;5.28;;;1.27;;
72924;SDS011;61070;50.794;7.054;2023-05-07T11:53:25;6.00;;;1.45;;
72924;SDS011;61070;50.794;7.054;2023-05-07T11:55:57;3.35;;;1.58;;
72924;SDS011;61070;50.794;7.054;2023-05-07T11:58:23;1.90;;;1.40;;
72924;SDS011;61070;50.794;7.054;2023-05-07T12:00:50;3.60;;;1.05;;
72924;SDS011;61070;50.794;7.054;2023-05-07T12:03:16;2.38;;;1.42;;
72924;SDS011;61070;50.794;7.054;2023-05-07T12:05:43;2.08;;;1.38;;
72924;SDS011;61070;50.794;7.054;2023-05-07T12:08:13;2.80;;;1.50;;
72924;SDS011;61070;50.794;7.054;2023-05-07T12:10:46;2.83;;;1.48;;
72924;SDS011;61070;50.794;7.054;2023-05-07T12:13:15;4.15;;;1.50;;
72924;SDS011;61070;50.794;7.054;2023-05-07T12:15:40;1.65;;;1.30;;
72924;SDS011;61070;50.794;7.054;2023-05-07T12:18:06;2.03;;;1.20;;
72924;SDS011;61070;50.794;7.054;2023-05-07T12:20:33;1.90;;;1.10;;
72924;SDS011;61070;50.794;7.054;2023-05-07T12:22:59;4.05;;;1.50;;
72924;SDS011;61070;50.794;7.054;2023-05-07T12:25:26;3.33;;;1.48;;
72924;SDS011;61070;50.794;7.054;2023-05-07T12:27:52;5.15;;;1.63;;
72924;SDS011;61070;50.794;7.054;2023-05-07T12:30:18;2.85;;;1.60;;
72924;SDS011;61070;50.794;7.054;2023-05-07T12:32:44;1.98;;;1.45;;
72924;SDS011;61070;50.794;7.054;2023-05-07T12:35:10;2.53;;;1.48;;
72924;SDS011;61070;50.794;7.054;2023-05-07T12:37:35;5.88;;;1.48;;
72924;SDS011;61070;50.794;7.054;2023-05-07T12:40:05;2.95;;;1.60;;
72924;SDS011;61070;50.794;7.054;2023-05-07T12:42:37;1.92;;;1.00;;
72924;SDS011;61070;50.794;7.054;2023-05-07T12:45:08;3.65;;;1.60;;
72924;SDS011;61070;50.794;7.054;2023-05-07T12:47:35;7.63;;;1.80;;
72924;SDS011;61070;50.794;7.054;2023-05-07T12:50:01;2.63;;;1.60;;
72924;SDS011;61070;50.794;7.054;2023-05-07T12:52:27;4.07;;;1.88;;
72924;SDS011;61070;50.794;7.054;2023-05-07T12:54:53;8.35;;;1.70;;
72924;SDS011;61070;50.794;7.054;2023-05-07T12:57:19;5.40;;;2.50;;
72924;SDS011;61070;50.794;7.054;2023-05-07T12:59:45;6.28;;;2.72;;
72924;SDS011;61070;50.794;7.054;2023-05-07T13:02:11;4.97;;;3.05;;
72924;SDS011;61070;50.794;7.054;2023-05-07T13:04:37;8.70;;;2.75;;
72924;SDS011;61070;50.794;7.054;2023-05-07T13:07:02;4.88;;;2.90;;
72924;SDS011;61070;50.794;7.054;2023-05-07T13:09:29;5.25;;;2.03;;
72924;SDS011;61070;50.794;7.054;2023-05-07T13:11:59;7.22;;;2.42;;
72924;SDS011;61070;50.794;7.054;2023-05-07T13:14:26;7.05;;;2.25;;
72924;SDS011;61070;50.794;7.054;2023-05-07T13:16:51;4.75;;;2.30;;
72924;SDS011;61070;50.794;7.054;2023-05-07T13:19:17;4.53;;;2.45;;
72924;SDS011;61070;50.794;7.054;2023-05-07T13:21:42;7.65;;;1.92;;
72924;SDS011;61070;50.794;7.054;2023-05-07T13:24:08;3.38;;;2.05;;
72924;SDS011;61070;50.794;7.054;2023-05-07T13:26:33;8.07;;;2.65;;
72924;SDS011;61070;50.794;7.054;2023-05-07T13:28:59;4.32;;;2.47;;
72924;SDS011;61070;50.794;7.054;2023-05-07T13:31:25;4.75;;;2.67;;
72924;SDS011;61070;50.794;7.054;2023-05-07T13:33:50;12.15;;;2.92;;
72924;SDS011;61070;50.794;7.054;2023-05-07T13:36:16;6.75;;;2.78;;
72924;SDS011;61070;50.794;7.054;2023-05-07T13:38:41;4.82;;;2.90;;
72924;SDS011;61070;50.794;7.054;2023-05-07T13:41:06;5.22;;;2.95;;
72924;SDS011;61070;50.794;7.054;2023-05-07T13:43:31;5.45;;;2.58;;
72924;SDS011;61070;50.794;7.054;2023-05-07T13:45:58;5.13;;;2.67;;
72924;SDS011;61070;50.794;7.054;2023-05-07T13:48:24;6.25;;;3.22;;
72924;SDS011;61070;50.794;7.054;2023-05-07T13:50:49;9.20;;;3.53;;
72924;SDS011;61070;50.794;7.054;2023-05-07T13:53:15;7.82;;;3.42;;
72924;SDS011;61070;50.794;7.054;2023-05-07T13:55:43;5.70;;;3.20;;
72924;SDS011;61070;50.794;7.054;2023-05-07T13:58:08;6.82;;;3.47;;
72924;SDS011;61070;50.794;7.054;2023-05-07T14:00:34;6.90;;;2.55;;
72924;SDS011;61070;50.794;7.054;2023-05-07T14:02:59;5.43;;;2.53;;
72924;SDS011;61070;50.794;7.054;2023-05-07T14:05:24;5.15;;;2.63;;
72924;SDS011;61070;50.794;7.054;2023-05-07T14:07:51;4.68;;;2.63;;
72924;SDS011;61070;50.794;7.054;2023-05-07T14:10:17;4.82;;;2.38;;
72924;SDS011;61070;50.794;7.054;2023-05-07T14:12:44;2.72;;;2.20;;
72924;SDS011;61070;50.794;7.054;2023-05-07T14:15:10;6.68;;;2.63;;
72924;SDS011;61070;50.794;7.054;2023-05-07T14:17:35;5.05;;;2.25;;
72924;SDS011;61070;50.794;7.054;2023-05-07T14:20:01;6.47;;;2.20;;
72924;SDS011;61070;50.794;7.054;2023-05-07T14:22:26;10.40;;;3.60;;
72924;SDS011;61070;50.794;7.054;2023-05-07T14:24:51;4.93;;;2.80;;
72924;SDS011;61070;50.794;7.054;2023-05-07T14:27:17;8.18;;;3.70;;
72924;SDS011;61070;50.794;7.054;2023-05-07T14:29:42;3.53;;;2.10;;
72924;SDS011;61070;50.794;7.054;2023-05-07T14:32:08;4.05;;;1.90;;
72924;SDS011;61070;50.794;7.054;2023-05-07T14:34:33;6.85;;;1.98;;
72924;SDS011;61070;50.794;7.054;2023-05-07T14:36:59;4.78;;;2.53;;
72924;SDS011;61070;50.794;7.054;2023-05-07T14:39:25;4.63;;;2.28;;
72924;SDS011;61070;50.794;7.054;2023-05-07T14:41:50;3.75;;;2.45;;
72924;SDS011;61070;50.794;7.054;2023-05-07T14:44:16;4.47;;;2.50;;
72924;SDS011;61070;50.794;7.054;2023-05-07T14:46:41;5.47;;;2.75;;
72924;SDS011;61070;50.794;7.054;2023-05-07T14:49:06;5.88;;;4.05;;
72924;SDS011;61070;50.794;7.054;2023-05-07T14:51:33;8.32;;;4.30;;
72924;SDS011;61070;50.794;7.054;2023-05-07T14:53:59;6.13;;;3.20;;
72924;SDS011;61070;50.794;7.054;2023-05-07T14:56:25;5.90;;;3.08;;
72924;SDS011;61070;50.794;7.054;2023-05-07T14:58:50;5.90;;;2.83;;
72924;SDS011;61070;50.794;7.054;2023-05-07T15:01:15;10.43;;;3.70;;